Time;durP1;ratioP1;P1;durP2;ratioP2;P2;SDS_P1;SDS_P2;PMS_P1;PMS_P2;Temp;Humidity;BMP_temperature;BMP_pressure;BME280_temperature;BME280_humidity;BME280_pressure;Samples;Min_cycle;Max_cycle;Signal;HPM_P1;HPM_P2
2021/04/27 00:00:16;;;;;;;8.20;7.50;;;5.90;98.50;;;;;;5081025;28;20203;-74
2021/04/27 00:02:43;;;;;;;8.50;7.80;;;5.90;98.00;;;;;;5063391;28;20619;-74
2021/04/27 00:05:11;;;;;;;8.47;7.67;;;5.90;97.90;;;;;;5065248;28;20603;-74
2021/04/27 00:07:37;;;;;;;7.73;7.13;;;5.90;97.20;;;;;;5064950;28;20576;-74
2021/04/27 00:10:07;;;;;;;8.77;7.33;;;5.90;97.10;;;;;;5060085;28;20569;-74
2021/04/27 00:12:34;;;;;;;8.40;7.60;;;5.90;97.10;;;;;;5060233;28;20226;-74
2021/04/27 00:15:00;;;;;;;7.43;6.67;;;5.80;97.20;;;;;;5063307;28;20210;-74
2021/04/27 00:17:28;;;;;;;7.57;6.87;;;5.80;97.40;;;;;;5062812;28;20199;-74
2021/04/27 00:19:54;;;;;;;7.80;7.20;;;5.80;97.10;;;;;;5062981;28;20198;-74
2021/04/27 00:22:20;;;;;;;7.37;6.77;;;5.80;97.20;;;;;;5062426;28;20211;-74
2021/04/27 00:24:46;;;;;;;7.60;6.90;;;5.70;96.80;;;;;;5064825;28;20633;-74
2021/04/27 00:27:13;;;;;;;7.70;7.10;;;5.60;97.60;;;;;;5062334;28;20194;-74
2021/04/27 00:29:39;;;;;;;8.20;7.40;;;5.60;97.50;;;;;;5060129;28;20195;-73
2021/04/27 00:32:06;;;;;;;7.60;7.00;;;5.60;96.70;;;;;;5079215;28;20269;-74
2021/04/27 00:34:33;;;;;;;7.70;7.00;;;5.60;96.70;;;;;;5060940;28;20219;-74
2021/04/27 00:36:59;;;;;;;8.27;7.60;;;5.60;96.90;;;;;;5060575;28;20459;-74
2021/04/27 00:39:25;;;;;;;7.13;6.63;;;5.60;97.00;;;;;;5061980;28;20430;-74
2021/04/27 00:41:52;;;;;;;9.47;7.80;;;5.60;96.70;;;;;;5064414;28;20219;-74
2021/04/27 00:44:18;;;;;;;7.70;6.90;;;5.50;96.40;;;;;;5062581;28;20195;-74
2021/04/27 00:46:44;;;;;;;8.10;7.30;;;5.50;96.70;;;;;;5063594;28;20565;-74
2021/04/27 00:49:10;;;;;;;7.60;6.90;;;5.50;96.60;;;;;;5059516;28;20206;-74
2021/04/27 00:51:38;;;;;;;7.57;6.97;;;5.40;96.40;;;;;;5073807;28;20278;-74
2021/04/27 00:54:07;;;;;;;7.77;7.07;;;5.40;96.10;;;;;;5052307;28;20195;-74
2021/04/27 00:56:33;;;;;;;7.60;6.90;;;5.50;96.20;;;;;;5061668;28;20203;-74
2021/04/27 00:58:59;;;;;;;7.27;6.53;;;5.40;96.30;;;;;;5064806;28;20662;-74
2021/04/27 01:01:26;;;;;;;7.63;6.93;;;5.40;96.70;;;;;;5078575;28;20523;-73
2021/04/27 01:03:53;;;;;;;8.13;7.40;;;5.40;96.00;;;;;;5064964;28;20198;-74
2021/04/27 01:06:19;;;;;;;7.40;6.80;;;5.30;96.60;;;;;;5061857;28;20607;-74
2021/04/27 01:08:52;;;;;;;7.57;6.97;;;5.30;97.10;;;;;;5057097;28;20226;-74
2021/04/27 01:11:28;;;;;;;5.43;3.50;;;5.20;97.90;;;;;;5060868;28;20495;-73
2021/04/27 01:14:03;;;;;;;4.47;4.03;;;5.20;97.50;;;;;;5062329;28;21003;-74
2021/04/27 01:16:31;;;;;;;3.30;3.00;;;5.10;97.10;;;;;;5060038;28;20469;-73
2021/04/27 01:18:58;;;;;;;4.20;3.23;;;5.10;97.30;;;;;;5064023;28;20464;-74
2021/04/27 01:21:27;;;;;;;4.83;3.27;;;5.10;98.00;;;;;;5078471;28;20469;-74
2021/04/27 01:24:10;;;;;;;5.20;3.67;;;5.10;98.30;;;;;;5064902;28;20663;-74
2021/04/27 01:26:42;;;;;;;4.93;3.50;;;5.00;97.80;;;;;;5062913;28;20198;-74
2021/04/27 01:29:11;;;;;;;4.27;3.40;;;4.90;98.10;;;;;;5066282;28;20278;-74
2021/04/27 01:31:39;;;;;;;5.30;3.77;;;4.90;98.70;;;;;;5073933;28;20454;-74
2021/04/27 01:34:07;;;;;;;4.70;3.60;;;4.90;99.10;;;;;;5051915;28;20976;-74
2021/04/27 01:36:36;;;;;;;4.43;3.80;;;4.90;98.80;;;;;;5059784;28;20823;-73
2021/04/27 01:39:05;;;;;;;4.43;4.03;;;4.80;98.60;;;;;;5061264;28;20854;-74
2021/04/27 01:41:32;;;;;;;4.10;3.10;;;4.70;98.50;;;;;;5059325;28;20232;-74
2021/04/27 01:44:00;;;;;;;3.93;3.37;;;4.70;98.70;;;;;;5071502;28;20445;-74
2021/04/27 01:46:27;;;;;;;5.07;3.67;;;4.60;98.40;;;;;;5079543;28;20472;-74
2021/04/27 01:48:55;;;;;;;5.63;3.67;;;4.60;98.70;;;;;;5075244;28;20241;-74
2021/04/27 01:51:24;;;;;;;4.20;3.07;;;4.60;98.50;;;;;;5061184;28;20437;-74
2021/04/27 01:54:09;;;;;;;5.50;3.33;;;4.60;98.20;;;;;;5053505;28;20464;-74
2021/04/27 01:56:37;;;;;;;3.60;3.30;;;4.50;98.80;;;;;;5060444;28;20999;-73
2021/04/27 01:59:05;;;;;;;4.80;4.30;;;4.50;98.80;;;;;;5062402;28;20518;-73
2021/04/27 02:01:37;;;;;;;5.77;5.17;;;4.50;99.10;;;;;;5061793;28;20474;-73
2021/04/27 02:04:03;;;;;;;5.07;4.63;;;4.40;98.90;;;;;;5071682;28;20868;-74
2021/04/27 02:06:42;;;;;;;4.97;3.47;;;4.40;99.60;;;;;;5078873;28;20466;-73
2021/04/27 02:09:11;;;;;;;5.23;3.40;;;4.30;99.30;;;;;;5059119;28;20455;-74
2021/04/27 02:11:40;;;;;;;5.23;3.17;;;4.20;99.90;;;;;;5074941;28;20937;-74
2021/04/27 02:14:10;;;;;;;6.63;3.50;;;4.20;99.70;;;;;;5051322;28;20445;-74
2021/04/27 02:16:39;;;;;;;4.57;3.43;;;4.10;99.90;;;;;;5059036;28;20450;-73
2021/04/27 02:19:09;;;;;;;4.13;3.30;;;4.10;99.90;;;;;;5069871;28;20453;-73
2021/04/27 02:21:36;;;;;;;6.03;5.53;;;4.10;99.90;;;;;;5072769;28;20461;-74
2021/04/27 02:24:23;;;;;;;6.10;5.60;;;4.00;99.90;;;;;;5054411;28;20475;-73
2021/04/27 02:26:50;;;;;;;5.07;3.70;;;4.00;99.90;;;;;;5058993;28;20596;-74
2021/04/27 02:29:22;;;;;;;3.60;3.03;;;3.90;99.90;;;;;;5059026;28;20454;-73
2021/04/27 02:31:49;;;;;;;4.57;3.50;;;3.90;99.90;;;;;;5060226;28;20437;-74
2021/04/27 02:34:20;;;;;;;4.37;3.63;;;3.90;99.90;;;;;;5077507;28;20817;-74
2021/04/27 02:36:48;;;;;;;5.00;3.80;;;3.80;99.90;;;;;;5062795;28;20523;-75
2021/04/27 02:39:22;;;;;;;6.07;5.60;;;3.80;99.90;;;;;;5053749;28;20528;-77
2021/04/27 02:41:49;;;;;;;6.23;5.63;;;3.70;99.90;;;;;;5058579;28;20469;-76
2021/04/27 02:44:35;;;;;;;7.27;6.03;;;3.70;99.90;;;;;;5054842;28;20448;-76
2021/04/27 02:47:03;;;;;;;6.80;6.30;;;3.60;99.90;;;;;;5059417;28;20456;-77
2021/04/27 02:49:29;;;;;;;3.60;3.00;;;3.60;99.90;;;;;;5065923;28;20475;-77
2021/04/27 02:52:04;;;;;;;5.40;4.90;;;3.60;99.90;;;;;;5067205;28;20506;-75
2021/04/27 02:54:39;;;;;;;6.93;6.33;;;3.50;99.90;;;;;;5057687;28;20556;-74
2021/04/27 02:57:06;;;;;;;6.83;6.17;;;3.60;99.90;;;;;;5048790;28;20450;-74
2021/04/27 02:59:41;;;;;;;6.10;5.60;;;3.60;99.90;;;;;;5065416;28;20463;-74
2021/04/27 03:02:08;;;;;;;6.87;6.27;;;3.60;99.90;;;;;;5057320;28;20470;-74
2021/04/27 03:04:35;;;;;;;5.03;4.60;;;3.60;99.90;;;;;;5063208;28;20486;-74
2021/04/27 03:07:11;;;;;;;5.17;4.33;;;3.60;99.90;;;;;;5055291;28;20430;-74
2021/04/27 03:09:41;;;;;;;4.67;3.80;;;3.50;99.90;;;;;;5066897;28;20436;-74
2021/04/27 03:12:09;;;;;;;5.93;4.47;;;3.50;99.90;;;;;;5063041;28;20449;-74
2021/04/27 03:14:39;;;;;;;4.77;3.67;;;3.50;99.90;;;;;;5059574;28;20957;-74
2021/04/27 03:17:07;;;;;;;5.50;5.10;;;3.50;99.90;;;;;;5078463;28;20503;-73
2021/04/27 03:19:34;;;;;;;6.13;5.53;;;3.40;99.90;;;;;;5060486;28;20441;-73
2021/04/27 03:22:08;;;;;;;6.70;6.10;;;3.30;99.90;;;;;;5072375;28;20478;-73
2021/04/27 03:24:35;;;;;;;6.50;5.87;;;3.30;99.90;;;;;;5056651;28;20465;-76
2021/04/27 03:27:01;;;;;;;6.90;6.20;;;3.20;99.90;;;;;;5058755;28;20442;-73
2021/04/27 03:29:45;;;;;;;5.93;5.43;;;3.20;99.90;;;;;;5058737;28;20451;-73
2021/04/27 03:32:12;;;;;;;5.90;5.43;;;3.30;99.90;;;;;;5054247;28;20442;-73
2021/04/27 03:34:39;;;;;;;5.80;5.30;;;3.30;99.90;;;;;;5061516;28;20477;-73
2021/04/27 03:37:08;;;;;;;6.23;5.73;;;3.30;99.90;;;;;;5080650;28;20448;-73
2021/04/27 03:39:36;;;;;;;6.80;6.10;;;3.30;99.90;;;;;;5054455;28;20498;-74
2021/04/27 03:42:03;;;;;;;6.00;5.50;;;3.20;99.90;;;;;;5064879;28;20585;-73
2021/04/27 03:44:30;;;;;;;6.57;5.97;;;3.20;99.90;;;;;;5077216;28;20828;-74
2021/04/27 03:46:57;;;;;;;7.43;6.53;;;3.10;99.90;;;;;;5063660;28;20447;-75
2021/04/27 03:49:25;;;;;;;7.60;7.00;;;3.00;99.90;;;;;;5066669;28;20456;-75
2021/04/27 03:51:51;;;;;;;7.43;6.83;;;3.00;99.90;;;;;;5080344;28;20451;-76
2021/04/27 03:54:19;;;;;;;6.57;6.03;;;3.00;99.90;;;;;;5066648;28;20981;-76
2021/04/27 03:56:46;;;;;;;7.00;6.30;;;3.10;99.90;;;;;;5065612;28;20488;-76
2021/04/27 03:59:13;;;;;;;7.03;6.33;;;3.10;99.90;;;;;;5054005;28;20456;-77
2021/04/27 04:01:41;;;;;;;6.90;6.30;;;3.00;99.90;;;;;;5067739;28;20474;-76
2021/04/27 04:04:08;;;;;;;8.17;7.53;;;3.10;99.90;;;;;;5060816;28;20444;-76
2021/04/27 04:06:35;;;;;;;8.23;7.57;;;3.10;99.90;;;;;;5052975;28;21049;-76
2021/04/27 04:09:17;;;;;;;8.40;7.70;;;3.10;99.90;;;;;;5054956;28;20449;-76
2021/04/27 04:11:52;;;;;;;7.77;7.10;;;3.10;99.90;;;;;;5069229;28;20521;-75
2021/04/27 04:14:19;;;;;;;8.10;7.50;;;3.20;99.90;;;;;;5057369;28;20432;-76
2021/04/27 04:17:05;;;;;;;8.60;7.80;;;3.10;99.90;;;;;;5057351;28;20459;-75
2021/04/27 04:19:32;;;;;;;8.50;7.80;;;3.00;99.90;;;;;;5064980;28;20440;-76
2021/04/27 04:22:03;;;;;;;8.07;7.37;;;3.00;99.90;;;;;;5061382;28;20528;-76
2021/04/27 04:24:34;;;;;;;8.07;7.37;;;3.00;99.90;;;;;;5063547;28;21012;-76
2021/04/27 04:27:00;;;;;;;7.17;6.47;;;3.00;99.90;;;;;;5058344;28;20451;-77
2021/04/27 04:29:43;;;;;;;8.47;7.70;;;3.10;99.90;;;;;;5059333;28;20979;-76
2021/04/27 04:32:28;;;;;;;9.20;7.90;;;3.10;99.90;;;;;;5056669;28;20460;-76
2021/04/27 04:35:14;;;;;;;8.83;7.93;;;3.20;99.90;;;;;;5058316;28;20449;-78
2021/04/27 04:38:01;;;;;;;7.90;7.20;;;3.30;99.90;;;;;;5060856;28;20650;-76
2021/04/27 04:40:46;;;;;;;9.40;8.40;;;3.30;99.90;;;;;;5058910;28;20450;-76
2021/04/27 04:43:31;;;;;;;8.40;7.70;;;3.30;99.90;;;;;;5057304;28;20986;-78
2021/04/27 04:46:16;;;;;;;7.53;6.93;;;3.30;99.90;;;;;;5061463;28;21434;-74
2021/04/27 04:49:01;;;;;;;7.13;6.43;;;3.40;99.90;;;;;;5051324;28;20447;-74
2021/04/27 04:51:47;;;;;;;5.83;3.93;;;3.50;99.90;;;;;;5063306;28;20526;-74
2021/04/27 04:54:22;;;;;;;6.57;4.63;;;3.60;99.90;;;;;;5064976;28;20445;-74
2021/04/27 04:56:49;;;;;;;9.87;6.40;;;3.60;99.90;;;;;;5069506;28;20973;-74
2021/04/27 04:59:16;;;;;;;8.00;7.20;;;3.60;99.90;;;;;;5051940;28;20997;-76
2021/04/27 05:01:42;;;;;;;7.90;7.20;;;3.70;99.90;;;;;;5061993;28;21014;-73
2021/04/27 05:04:28;;;;;;;8.70;7.80;;;3.90;99.90;;;;;;5061450;28;20453;-73
2021/04/27 05:07:14;;;;;;;8.07;7.00;;;4.10;99.90;;;;;;5056043;28;20952;-74
2021/04/27 05:10:01;;;;;;;8.00;4.30;;;4.60;99.90;;;;;;5031704;28;20444;-73
2021/04/27 05:12:35;;;;;;;7.60;6.97;;;5.10;99.90;;;;;;5076875;28;20442;-73
2021/04/27 05:15:16;;;;;;;9.67;6.83;;;5.50;99.90;;;;;;5054434;28;20456;-74
2021/04/27 05:17:42;;;;;;;8.13;7.43;;;5.80;99.90;;;;;;5078253;28;20526;-74
2021/04/27 05:20:09;;;;;;;6.00;5.40;;;6.30;99.90;;;;;;5064836;28;20483;-74
2021/04/27 05:22:45;;;;;;;6.53;3.67;;;6.60;99.90;;;;;;5078716;28;20284;-74
2021/04/27 05:25:13;;;;;;;5.13;3.77;;;6.90;99.40;;;;;;5079925;28;20640;-74
2021/04/27 05:27:47;;;;;;;7.97;3.60;;;7.40;99.40;;;;;;5063139;28;20276;-73
2021/04/27 05:30:15;;;;;;;7.80;6.13;;;7.80;98.40;;;;;;5080043;28;20199;-74
2021/04/27 05:32:41;;;;;;;5.80;4.87;;;8.10;97.30;;;;;;5079755;28;20256;-74
2021/04/27 05:35:09;;;;;;;7.17;6.00;;;8.40;97.20;;;;;;5062803;28;20215;-74
2021/04/27 05:37:35;;;;;;;9.17;5.77;;;8.70;94.50;;;;;;5064362;28;20677;-76
2021/04/27 05:40:03;;;;;;;6.20;5.60;;;8.70;93.90;;;;;;5063705;28;20193;-75
2021/04/27 05:42:30;;;;;;;6.13;5.03;;;8.70;94.30;;;;;;5057269;28;20222;-74
2021/04/27 05:44:56;;;;;;;6.80;5.10;;;8.80;95.00;;;;;;5065102;28;20229;-74
2021/04/27 05:47:23;;;;;;;7.37;4.97;;;8.70;94.40;;;;;;5063021;28;20191;-74
2021/04/27 05:49:49;;;;;;;5.47;4.97;;;8.60;93.90;;;;;;5062475;28;20556;-74
2021/04/27 05:52:15;;;;;;;6.47;5.40;;;8.60;94.10;;;;;;5059202;28;20214;-75
2021/04/27 05:54:42;;;;;;;6.57;5.70;;;8.50;94.00;;;;;;5054714;28;20237;-75
2021/04/27 05:57:08;;;;;;;6.93;5.17;;;8.50;93.90;;;;;;5064184;28;20225;-73
2021/04/27 05:59:35;;;;;;;6.10;5.50;;;8.60;94.20;;;;;;5071368;28;20214;-72
2021/04/27 06:02:02;;;;;;;7.90;5.43;;;8.50;94.00;;;;;;5063666;28;20206;-73
2021/04/27 06:04:28;;;;;;;5.87;5.33;;;8.40;94.50;;;;;;5063638;28;20264;-73
2021/04/27 06:06:54;;;;;;;8.63;5.37;;;8.40;94.80;;;;;;5060095;28;20202;-73
2021/04/27 06:09:21;;;;;;;5.97;5.37;;;8.40;94.50;;;;;;5063869;28;20190;-73
2021/04/27 06:11:47;;;;;;;7.57;5.20;;;8.50;94.80;;;;;;5062471;28;20559;-73
2021/04/27 06:14:13;;;;;;;5.80;5.00;;;8.50;94.80;;;;;;5063627;28;20197;-73
2021/04/27 06:16:40;;;;;;;6.07;5.03;;;8.50;95.10;;;;;;5062880;28;20195;-73
2021/04/27 06:19:07;;;;;;;5.93;4.73;;;8.50;94.90;;;;;;5063344;28;20244;-73
2021/04/27 06:21:34;;;;;;;7.33;5.57;;;8.70;95.10;;;;;;5062299;28;20233;-73
2021/04/27 06:24:00;;;;;;;6.00;5.40;;;8.80;94.70;;;;;;5061410;28;20194;-73
2021/04/27 06:26:27;;;;;;;5.60;5.07;;;8.90;95.00;;;;;;5063261;28;20222;-73
2021/04/27 06:28:53;;;;;;;8.60;6.07;;;9.20;94.50;;;;;;5062093;28;20191;-73
2021/04/27 06:31:20;;;;;;;8.63;5.87;;;9.10;94.60;;;;;;5063545;28;20186;-73
2021/04/27 06:33:47;;;;;;;6.57;5.40;;;9.10;94.80;;;;;;5078123;28;20237;-73
2021/04/27 06:36:15;;;;;;;7.40;6.50;;;9.10;94.50;;;;;;5063105;28;20206;-73
2021/04/27 06:38:41;;;;;;;6.77;6.17;;;9.40;94.10;;;;;;5062969;28;20697;-73
2021/04/27 06:41:08;;;;;;;7.50;6.90;;;9.60;94.80;;;;;;5054036;28;20244;-73
2021/04/27 06:43:35;;;;;;;7.50;6.43;;;9.70;94.00;;;;;;5071182;28;20199;-73
2021/04/27 06:46:02;;;;;;;7.27;6.67;;;9.90;94.20;;;;;;5059736;28;20221;-74
2021/04/27 06:48:28;;;;;;;8.43;7.20;;;10.00;93.70;;;;;;5049421;28;20660;-73
2021/04/27 06:50:56;;;;;;;7.30;6.60;;;10.20;93.60;;;;;;5054630;28;20217;-73
2021/04/27 06:53:22;;;;;;;5.93;5.10;;;10.50;93.90;;;;;;5056030;28;20591;-73
2021/04/27 06:55:49;;;;;;;6.27;5.20;;;10.80;93.80;;;;;;5049882;28;20273;-73
2021/04/27 06:58:16;;;;;;;8.17;5.50;;;11.00;93.40;;;;;;5059736;28;20191;-73
2021/04/27 07:00:43;;;;;;;8.20;7.10;;;10.90;93.40;;;;;;5061722;28;20233;-73
2021/04/27 07:03:09;;;;;;;6.87;6.27;;;10.90;93.30;;;;;;5056373;28;20221;-73
2021/04/27 07:05:36;;;;;;;5.67;5.07;;;11.00;93.30;;;;;;5037836;28;20225;-73
2021/04/27 07:08:04;;;;;;;4.27;3.67;;;11.20;92.70;;;;;;5046703;28;20667;-73
2021/04/27 07:10:31;;;;;;;6.07;5.47;;;11.50;92.60;;;;;;5050023;28;20619;-73
2021/04/27 07:12:58;;;;;;;9.47;6.47;;;11.60;92.50;;;;;;5053233;28;20311;-73
2021/04/27 07:15:24;;;;;;;9.03;6.10;;;11.40;92.30;;;;;;5049226;28;20726;-73
2021/04/27 07:17:51;;;;;;;6.97;6.27;;;11.50;92.20;;;;;;5052847;28;20245;-73
2021/04/27 07:20:17;;;;;;;8.63;6.30;;;11.70;91.10;;;;;;5050716;28;20210;-73
2021/04/27 07:22:44;;;;;;;8.00;6.33;;;11.90;92.00;;;;;;5052330;28;20221;-73
2021/04/27 07:25:14;;;;;;;8.30;7.10;;;12.30;92.10;;;;;;5049334;28;20214;-73
2021/04/27 07:27:41;;;;;;;8.23;7.10;;;12.70;91.00;;;;;;5058957;28;20198;-73
2021/04/27 07:30:09;;;;;;;8.57;7.87;;;13.00;90.70;;;;;;5063725;28;20632;-74
2021/04/27 07:32:35;;;;;;;8.47;7.57;;;13.30;90.40;;;;;;5055923;28;20237;-74
2021/04/27 07:35:02;;;;;;;8.80;7.63;;;13.30;88.90;;;;;;5062721;28;20699;-74
2021/04/27 07:37:30;;;;;;;5.70;4.57;;;13.50;88.40;;;;;;5057194;28;20245;-74
2021/04/27 07:39:56;;;;;;;7.83;6.63;;;13.50;90.00;;;;;;5056488;28;20232;-74
2021/04/27 07:42:23;;;;;;;8.50;7.70;;;14.00;89.20;;;;;;5052967;28;20210;-74
2021/04/27 07:44:50;;;;;;;8.47;7.67;;;14.00;87.80;;;;;;5058345;28;20248;-74
2021/04/27 07:47:16;;;;;;;7.33;6.53;;;14.60;87.80;;;;;;5062656;28;20183;-74
2021/04/27 07:49:42;;;;;;;7.17;5.97;;;14.70;86.70;;;;;;5058923;28;20586;-74
2021/04/27 07:52:09;;;;;;;8.97;8.17;;;14.70;85.50;;;;;;5056630;28;20221;-73
2021/04/27 07:54:35;;;;;;;9.20;6.37;;;14.80;86.50;;;;;;5053919;28;20298;-74
2021/04/27 07:57:02;;;;;;;8.60;6.27;;;15.00;86.70;;;;;;5045324;28;20227;-74
2021/04/27 07:59:29;;;;;;;8.43;7.53;;;14.80;83.30;;;;;;5054342;28;20607;-73
2021/04/27 08:01:55;;;;;;;7.73;6.50;;;15.00;84.30;;;;;;5053777;28;20234;-74
2021/04/27 08:04:22;;;;;;;9.37;8.47;;;15.00;85.20;;;;;;5060721;28;20195;-74
2021/04/27 08:06:48;;;;;;;9.50;8.60;;;15.00;83.20;;;;;;5060085;28;20197;-74
2021/04/27 08:09:14;;;;;;;9.33;8.53;;;15.10;86.00;;;;;;5051250;28;20687;-75
2021/04/27 08:11:41;;;;;;;8.53;7.63;;;15.10;84.20;;;;;;5033941;28;20206;-73
2021/04/27 08:14:08;;;;;;;9.90;8.43;;;15.10;82.90;;;;;;5062851;28;20590;-73
2021/04/27 08:16:35;;;;;;;9.07;8.27;;;15.30;83.40;;;;;;5057809;28;20573;-73
2021/04/27 08:19:03;;;;;;;9.17;8.27;;;15.40;83.50;;;;;;5068279;28;20199;-74
2021/04/27 08:21:29;;;;;;;9.53;8.60;;;15.60;83.70;;;;;;5062114;28;20209;-73
2021/04/27 08:23:56;;;;;;;9.37;8.47;;;15.90;82.80;;;;;;5066439;28;20212;-74
2021/04/27 08:26:22;;;;;;;9.77;8.63;;;15.90;83.10;;;;;;5063400;28;20219;-74
2021/04/27 08:28:49;;;;;;;9.00;8.20;;;16.10;82.20;;;;;;5059539;28;20238;-74
2021/04/27 08:31:15;;;;;;;10.33;9.10;;;16.40;80.50;;;;;;5058338;28;20221;-73
2021/04/27 08:33:43;;;;;;;10.63;9.20;;;16.30;80.40;;;;;;5058033;28;20196;-74
2021/04/27 08:36:10;;;;;;;8.80;6.40;;;16.30;81.40;;;;;;5056754;28;20224;-76
2021/04/27 08:38:36;;;;;;;9.73;6.97;;;16.60;81.40;;;;;;5054646;28;20250;-76
2021/04/27 08:41:03;;;;;;;8.97;6.70;;;16.80;79.90;;;;;;5065516;28;20197;-74
2021/04/27 08:43:29;;;;;;;7.63;6.80;;;16.60;79.90;;;;;;5075899;28;20642;-74
2021/04/27 08:45:56;;;;;;;9.13;7.30;;;16.50;77.80;;;;;;5064424;28;20216;-74
2021/04/27 08:48:23;;;;;;;8.53;7.17;;;16.10;79.80;;;;;;5061485;28;20196;-74
2021/04/27 08:50:52;;;;;;;14.30;7.97;;;16.40;81.70;;;;;;5061087;28;20554;-74
2021/04/27 08:53:19;;;;;;;9.77;8.77;;;16.50;79.00;;;;;;5065158;28;20184;-74
2021/04/27 08:55:46;;;;;;;10.67;9.67;;;16.60;79.60;;;;;;5063549;28;20231;-74
2021/04/27 08:58:14;;;;;;;9.33;8.53;;;16.80;81.50;;;;;;5080483;28;20190;-74
2021/04/27 09:00:41;;;;;;;9.70;8.80;;;17.20;81.70;;;;;;5052954;28;20590;-74
2021/04/27 09:03:09;;;;;;;10.13;8.97;;;17.10;79.20;;;;;;5063993;28;20208;-74
2021/04/27 09:05:37;;;;;;;10.60;9.60;;;17.10;79.80;;;;;;5061582;28;20577;-75
2021/04/27 09:08:05;;;;;;;10.17;9.23;;;17.50;78.80;;;;;;5055215;28;20202;-74
2021/04/27 09:10:33;;;;;;;12.90;10.40;;;17.80;77.50;;;;;;5051295;28;20709;-74
2021/04/27 09:13:02;;;;;;;9.93;9.03;;;17.40;78.50;;;;;;5057841;28;20212;-74
2021/04/27 09:15:34;;;;;;;10.73;9.77;;;17.30;79.70;;;;;;5054317;28;20218;-74
2021/04/27 09:18:21;;;;;;;10.17;9.20;;;17.50;77.70;;;;;;5052680;28;20243;-74
2021/04/27 09:20:52;;;;;;;10.40;9.30;;;17.30;77.60;;;;;;5055830;28;20204;-74
2021/04/27 09:23:20;;;;;;;10.17;9.17;;;17.60;79.10;;;;;;5054734;28;20440;-74
2021/04/27 09:26:08;;;;;;;9.93;8.90;;;18.10;78.10;;;;;;5054813;28;20592;-74
2021/04/27 09:28:36;;;;;;;11.17;9.93;;;18.20;75.60;;;;;;5056552;28;20206;-74
2021/04/27 09:31:21;;;;;;;10.93;9.83;;;17.90;75.70;;;;;;5058285;28;20201;-76
2021/04/27 09:33:47;;;;;;;10.10;9.13;;;17.90;77.10;;;;;;5058356;28;20223;-76
2021/04/27 09:36:18;;;;;;;11.70;10.50;;;18.00;76.50;;;;;;5058575;28;20220;-76
2021/04/27 09:38:45;;;;;;;10.37;9.47;;;18.30;76.00;;;;;;5062523;28;20226;-75
2021/04/27 09:41:12;;;;;;;11.00;9.90;;;18.10;74.90;;;;;;5069400;28;20244;-75
2021/04/27 09:43:41;;;;;;;10.83;9.80;;;18.10;75.70;;;;;;5049194;28;20244;-75
2021/04/27 09:46:09;;;;;;;11.10;9.33;;;18.10;76.70;;;;;;5052803;28;20599;-75
2021/04/27 09:48:37;;;;;;;11.50;10.40;;;18.50;77.80;;;;;;5060730;28;20207;-75
2021/04/27 09:51:16;;;;;;;21.40;11.70;;;18.50;72.30;;;;;;5064441;28;20195;-75
2021/04/27 09:53:46;;;;;;;11.00;9.83;;;18.00;74.00;;;;;;5054282;28;20196;-76
2021/04/27 09:56:31;;;;;;;10.67;9.60;;;18.00;74.60;;;;;;5045574;28;20657;-75
2021/04/27 09:59:02;;;;;;;10.87;9.43;;;18.00;73.30;;;;;;5049018;28;20261;-75
2021/04/27 10:01:29;;;;;;;10.67;9.67;;;18.20;74.20;;;;;;5053784;28;20364;-75
2021/04/27 10:03:55;;;;;;;12.53;9.63;;;18.30;74.80;;;;;;5055021;28;20207;-74
2021/04/27 10:06:22;;;;;;;11.00;10.00;;;18.30;73.80;;;;;;5054802;28;20594;-75
2021/04/27 10:08:50;;;;;;;13.03;10.53;;;17.90;73.50;;;;;;5051288;28;20206;-75
2021/04/27 10:11:17;;;;;;;10.90;9.17;;;17.30;76.10;;;;;;5053605;28;20500;-75
2021/04/27 10:13:44;;;;;;;11.33;10.23;;;17.40;76.90;;;;;;5050106;28;20204;-75
2021/04/27 10:16:10;;;;;;;11.37;10.27;;;17.30;75.40;;;;;;5052412;28;20248;-75
2021/04/27 10:18:37;;;;;;;10.30;9.40;;;17.60;76.30;;;;;;5052575;28;20197;-75
2021/04/27 10:21:05;;;;;;;10.83;9.83;;;17.70;78.40;;;;;;5058144;28;20202;-76
2021/04/27 10:23:32;;;;;;;11.47;10.17;;;17.90;76.70;;;;;;5051343;28;20579;-75
2021/04/27 10:25:59;;;;;;;11.77;9.50;;;17.60;73.70;;;;;;5052345;28;20221;-75
2021/04/27 10:28:59;;;;;;;11.37;10.23;;;17.30;75.70;;;;;;5054630;28;20587;-75
2021/04/27 10:31:27;;;;;;;12.43;9.60;;;17.10;76.40;;;;;;5048322;28;20221;-75
2021/04/27 10:34:02;;;;;;;9.90;9.00;;;17.30;76.70;;;;;;5049803;28;20192;-75
2021/04/27 10:36:29;;;;;;;11.20;10.07;;;17.40;78.10;;;;;;5048990;28;20221;-75
2021/04/27 10:38:57;;;;;;;10.73;9.43;;;17.10;75.10;;;;;;5055488;28;20209;-75
2021/04/27 10:41:47;;;;;;;10.93;9.93;;;17.10;76.80;;;;;;5060811;28;20191;-75
2021/04/27 10:44:14;;;;;;;11.87;10.27;;;17.10;76.30;;;;;;5052568;28;20206;-75
2021/04/27 10:46:45;;;;;;;11.60;9.70;;;17.10;76.40;;;;;;5051994;28;20198;-75
2021/04/27 10:49:28;;;;;;;10.30;9.40;;;17.20;76.10;;;;;;5048361;28;20196;-75
2021/04/27 10:51:56;;;;;;;11.73;10.53;;;17.40;78.10;;;;;;5049851;28;20210;-75
2021/04/27 10:54:27;;;;;;;10.27;8.87;;;17.50;76.50;;;;;;5056305;28;20595;-75
2021/04/27 10:57:10;;;;;;;8.53;7.47;;;17.20;74.50;;;;;;5052355;28;20207;-75
2021/04/27 10:59:53;;;;;;;9.10;7.80;;;17.20;75.60;;;;;;5051162;28;20209;-75
2021/04/27 11:02:24;;;;;;;9.80;7.90;;;17.00;76.40;;;;;;5049343;28;20219;-76
2021/04/27 11:04:53;;;;;;;9.53;7.43;;;16.90;76.00;;;;;;5050928;28;20586;-75
2021/04/27 11:07:37;;;;;;;9.37;7.73;;;17.00;76.90;;;;;;5053823;28;20195;-75
2021/04/27 11:10:33;;;;;;;10.27;8.13;;;17.00;77.30;;;;;;5055846;28;20575;-75
2021/04/27 11:13:11;;;;;;;9.80;7.97;;;17.00;77.30;;;;;;5058826;28;20198;-74
2021/04/27 11:15:39;;;;;;;9.73;8.17;;;16.80;75.00;;;;;;5054607;28;20796;-75
2021/04/27 11:18:11;;;;;;;12.00;7.93;;;16.80;75.20;;;;;;5047738;28;20572;-75
2021/04/27 11:20:53;;;;;;;8.80;7.03;;;16.90;75.50;;;;;;5049376;28;20540;-75
2021/04/27 11:23:35;;;;;;;9.87;8.53;;;16.80;75.10;;;;;;5051651;28;20253;-75
2021/04/27 11:26:02;;;;;;;11.97;8.23;;;16.80;76.40;;;;;;5048740;28;20222;-75
2021/04/27 11:28:51;;;;;;;9.10;7.43;;;16.80;74.80;;;;;;5050822;28;20193;-75
2021/04/27 11:31:18;;;;;;;9.87;8.20;;;17.00;76.30;;;;;;5043864;28;20544;-75
2021/04/27 11:33:53;;;;;;;11.10;10.00;;;16.90;75.00;;;;;;5058941;28;20217;-74
2021/04/27 11:36:33;;;;;;;11.47;10.27;;;16.50;73.40;;;;;;5055738;28;20224;-75
2021/04/27 11:38:59;;;;;;;11.53;10.43;;;16.60;75.10;;;;;;5060133;28;20574;-75
2021/04/27 11:41:43;;;;;;;10.43;9.50;;;16.40;74.40;;;;;;5055307;28;20191;-74
2021/04/27 11:44:10;;;;;;;12.20;9.80;;;16.50;75.70;;;;;;5043263;28;20702;-75
2021/04/27 11:46:53;;;;;;;10.77;9.40;;;16.50;75.90;;;;;;5055467;28;20217;-75
2021/04/27 11:49:20;;;;;;;9.77;8.80;;;16.60;76.90;;;;;;5045322;28;20223;-75
2021/04/27 11:51:47;;;;;;;11.17;9.70;;;16.70;76.50;;;;;;5075062;28;20197;-73
2021/04/27 11:54:13;;;;;;;9.30;8.40;;;16.60;74.10;;;;;;5064484;28;20199;-73
2021/04/27 11:56:47;;;;;;;11.10;9.60;;;16.60;74.40;;;;;;5058650;28;20208;-73
2021/04/27 11:59:19;;;;;;;11.77;9.80;;;16.80;74.80;;;;;;5079583;28;20203;-74
2021/04/27 12:01:45;;;;;;;10.73;9.63;;;16.80;73.20;;;;;;5066972;28;20210;-73
2021/04/27 12:04:12;;;;;;;9.57;8.57;;;16.90;72.40;;;;;;5061341;28;20203;-73
2021/04/27 12:06:38;;;;;;;8.50;7.60;;;16.90;71.90;;;;;;5068630;28;20264;-73
2021/04/27 12:09:06;;;;;;;10.23;9.33;;;17.00;71.30;;;;;;5059465;28;20275;-73
2021/04/27 12:11:33;;;;;;;10.60;9.63;;;17.00;71.90;;;;;;5068160;28;20273;-74
2021/04/27 12:14:01;;;;;;;10.30;9.30;;;17.00;74.30;;;;;;5077761;28;20291;-73
2021/04/27 12:16:30;;;;;;;12.40;8.83;;;17.10;72.60;;;;;;5066075;28;20225;-73
2021/04/27 12:19:03;;;;;;;9.90;8.90;;;17.10;72.60;;;;;;5064321;28;20207;-73
2021/04/27 12:21:37;;;;;;;9.47;8.57;;;17.30;71.50;;;;;;5053843;28;20195;-73
2021/04/27 12:24:22;;;;;;;9.23;8.43;;;17.30;70.70;;;;;;5063210;28;20222;-73
2021/04/27 12:26:54;;;;;;;9.97;8.97;;;17.10;68.30;;;;;;5056195;28;20199;-74
2021/04/27 12:29:25;;;;;;;9.73;8.93;;;17.10;71.60;;;;;;5063898;28;20202;-74
2021/04/27 12:31:54;;;;;;;10.40;9.40;;;17.00;68.90;;;;;;5058757;28;20200;-74
2021/04/27 12:34:20;;;;;;;10.37;9.37;;;16.90;70.60;;;;;;5066287;28;20256;-73
2021/04/27 12:36:49;;;;;;;9.63;8.83;;;16.90;70.00;;;;;;5060614;28;20205;-73
2021/04/27 12:39:30;;;;;;;11.00;9.83;;;17.00;72.10;;;;;;5065697;28;20193;-73
2021/04/27 12:41:59;;;;;;;12.77;9.20;;;16.90;67.60;;;;;;5061291;28;20218;-73
2021/04/27 12:44:36;;;;;;;12.57;9.10;;;16.80;68.30;;;;;;5065246;28;20186;-73
2021/04/27 12:47:15;;;;;;;9.97;9.00;;;16.80;68.70;;;;;;5061288;28;20208;-73
2021/04/27 12:49:42;;;;;;;10.00;8.50;;;17.00;71.00;;;;;;5063409;28;20201;-73
2021/04/27 12:52:12;;;;;;;10.40;8.90;;;17.10;65.50;;;;;;5059629;28;20229;-73
2021/04/27 12:54:39;;;;;;;9.77;8.77;;;17.00;65.90;;;;;;5077700;28;20242;-73
2021/04/27 12:57:08;;;;;;;8.80;8.00;;;16.90;68.40;;;;;;5057288;28;20220;-73
2021/04/27 12:59:35;;;;;;;8.97;8.17;;;17.00;69.10;;;;;;5065410;28;20679;-73
2021/04/27 13:02:07;;;;;;;9.20;8.30;;;17.00;66.60;;;;;;5056784;28;20212;-73
2021/04/27 13:04:39;;;;;;;9.53;8.60;;;16.90;68.00;;;;;;5061724;28;20216;-73